createdAt,value
2018-08-07T00:00:45.931Z,59.10
2018-08-07T00:01:45.863Z,59.48
2018-08-07T00:02:45.756Z,59.10
2018-08-07T00:03:45.668Z,59.36
2018-08-07T00:04:45.581Z,59.58
2018-08-07T00:05:45.496Z,59.87
2018-08-07T00:06:45.422Z,59.97
2018-08-07T00:07:45.317Z,59.78
2018-08-07T00:08:45.230Z,59.30
2018-08-07T00:09:45.144Z,59.78
2018-08-07T00:10:45.056Z,59.20
2018-08-07T00:11:44.970Z,59.97
2018-08-07T00:12:44.897Z,59.30
2018-08-07T00:13:44.795Z,59.48
2018-08-07T00:14:44.710Z,59.10
2018-08-07T00:15:44.620Z,59.48
2018-08-07T00:16:44.538Z,59.58
2018-08-07T00:17:44.457Z,58.72
2018-08-07T00:18:44.353Z,58.91
2018-08-07T00:19:44.271Z,59.00
2018-08-07T00:20:44.179Z,58.81
2018-08-07T00:21:44.092Z,59.10
2018-08-07T00:22:44.019Z,59.10
2018-08-07T00:23:43.918Z,59.10
2018-08-07T00:24:43.828Z,58.91
2018-08-07T00:25:43.741Z,59.58
2018-08-07T00:26:43.653Z,59.39
2018-08-07T00:27:43.580Z,59.55
2018-08-07T00:28:43.484Z,59.65
2018-08-07T00:29:43.391Z,59.75
2018-08-07T00:30:43.303Z,59.94
2018-08-07T00:31:43.216Z,60.13
2018-08-07T00:32:43.144Z,59.94
2018-08-07T00:33:43.039Z,59.84
2018-08-07T00:34:42.964Z,60.03
2018-08-07T00:35:42.863Z,60.13
2018-08-07T00:36:42.775Z,59.68
2018-08-07T00:37:42.723Z,59.58
2018-08-07T00:38:42.602Z,59.55
2018-08-07T00:39:42.621Z,59.20
2018-08-07T00:40:42.425Z,59.55
2018-08-07T00:41:42.339Z,59.78
2018-08-07T00:42:42.264Z,60.32
2018-08-07T00:43:42.162Z,60.61
2018-08-07T00:44:42.074Z,60.52
2018-08-07T00:45:41.986Z,60.03
2018-08-07T00:46:42.021Z,60.23
2018-08-07T00:47:41.827Z,60.03
2018-08-07T00:48:41.722Z,60.03
2018-08-07T00:49:41.635Z,60.23
2018-08-07T00:50:41.555Z,60.23
2018-08-07T00:51:41.460Z,60.13
2018-08-07T00:52:41.388Z,60.42
2018-08-07T00:53:41.392Z,61.00
2018-08-07T00:54:41.200Z,60.52
2018-08-07T00:55:41.108Z,60.61
2018-08-07T00:56:41.022Z,60.32
2018-08-07T00:57:40.935Z,60.80
2018-08-07T00:58:40.863Z,60.32
2018-08-07T00:59:40.758Z,60.42
2018-08-07T01:00:40.778Z,60.42
2018-08-07T01:01:40.584Z,61.00
2018-08-07T01:02:40.498Z,61.29
2018-08-07T01:03:40.421Z,60.42
2018-08-07T01:04:40.320Z,61.00
2018-08-07T01:05:40.230Z,60.80
2018-08-07T01:06:40.168Z,60.23
2018-08-07T01:07:40.161Z,60.71
2018-08-07T01:08:39.987Z,60.71
2018-08-07T01:09:39.880Z,60.42
2018-08-07T01:10:39.793Z,60.71
2018-08-07T01:11:39.704Z,60.42
2018-08-07T01:12:39.616Z,60.42
2018-08-07T01:13:39.543Z,61.00
2018-08-07T01:14:39.546Z,61.19
2018-08-07T01:15:39.354Z,61.00
2018-08-07T01:16:39.268Z,61.00
2018-08-07T01:17:39.176Z,61.00
2018-08-07T01:18:39.106Z,61.19
2018-08-07T01:19:39.000Z,61.00
2018-08-07T01:20:38.914Z,60.71
2018-08-07T01:21:38.940Z,60.42
2018-08-07T01:22:38.744Z,61.29
2018-08-07T01:23:38.668Z,60.90
2018-08-07T01:24:38.563Z,61.19
2018-08-07T01:25:38.475Z,61.48
2018-08-07T01:26:38.388Z,61.00
2018-08-07T01:27:38.298Z,61.38
2018-08-07T01:28:38.354Z,61.55
2018-08-07T01:29:38.124Z,61.87
2018-08-07T01:30:38.036Z,61.55
2018-08-07T01:31:37.947Z,61.58
2018-08-07T01:32:37.860Z,61.96
2018-08-07T01:33:37.788Z,62.12
2018-08-07T01:34:37.687Z,61.87
2018-08-07T01:35:37.703Z,61.87
2018-08-07T01:36:37.511Z,61.68
2018-08-07T01:37:37.421Z,61.48
2018-08-07T01:38:37.350Z,61.19
2018-08-07T01:39:37.246Z,61.38
2018-08-07T01:40:37.160Z,61.29
2018-08-07T01:41:37.072Z,61.00
2018-08-07T01:42:37.088Z,61.58
2018-08-07T01:43:36.897Z,61.96
2018-08-07T01:44:36.823Z,61.87
2018-08-07T01:45:36.717Z,62.15
2018-08-07T01:46:36.631Z,61.38
2018-08-07T01:47:36.544Z,61.00
2018-08-07T01:48:36.456Z,61.29
2018-08-07T01:49:36.506Z,61.19
2018-08-07T01:50:36.279Z,61.10
2018-08-07T01:51:36.190Z,61.10
2018-08-07T01:52:36.106Z,60.80
2018-08-07T01:53:36.020Z,61.10
2018-08-07T01:54:35.943Z,61.19
2018-08-07T01:55:35.838Z,61.10
2018-08-07T01:56:35.858Z,61.10
2018-08-07T01:57:35.665Z,60.90
2018-08-07T01:58:35.576Z,60.52
2018-08-07T01:59:35.507Z,60.52
2018-08-07T02:00:35.401Z,60.42
2018-08-07T02:01:35.319Z,61.00
2018-08-07T02:02:35.226Z,60.90
2018-08-07T02:03:35.136Z,61.00
2018-08-07T02:04:35.066Z,61.29
2018-08-07T02:05:34.962Z,60.61
2018-08-07T02:06:34.873Z,61.29
2018-08-07T02:07:34.786Z,61.38
2018-08-07T02:08:35.464Z,61.10
2018-08-07T02:09:34.624Z,60.90
2018-08-07T02:10:34.545Z,61.10
2018-08-07T02:11:34.433Z,61.38
2018-08-07T02:12:34.348Z,60.90
2018-08-07T02:13:34.259Z,61.29
2018-08-07T02:14:34.187Z,61.87
2018-08-07T02:15:34.083Z,61.55
2018-08-07T02:16:33.994Z,61.55
2018-08-07T02:17:33.907Z,62.60
2018-08-07T02:18:33.820Z,61.55
2018-08-07T02:19:33.746Z,61.93
2018-08-07T02:20:33.646Z,62.51
2018-08-07T02:21:33.575Z,61.83
2018-08-07T02:22:33.468Z,61.00
2018-08-07T02:23:33.379Z,61.29
2018-08-07T02:24:33.305Z,61.48
2018-08-07T02:25:33.205Z,61.38
2018-08-07T02:26:33.118Z,61.45
2018-08-07T02:27:33.029Z,61.10
2018-08-07T02:28:32.940Z,62.06
2018-08-07T02:29:32.856Z,61.83
2018-08-07T02:30:32.780Z,62.51
2018-08-07T02:31:32.676Z,62.51
2018-08-07T02:32:32.588Z,62.80
2018-08-07T02:33:32.501Z,61.96
2018-08-07T02:34:32.446Z,61.74
2018-08-07T02:35:32.343Z,61.96
2018-08-07T02:36:32.236Z,61.77
2018-08-07T02:37:32.151Z,61.29
2018-08-07T02:38:32.067Z,62.06
2018-08-07T02:39:31.975Z,61.58
2018-08-07T02:40:31.899Z,62.15
2018-08-07T02:41:31.797Z,61.96
2018-08-07T02:42:31.710Z,61.48
2018-08-07T02:43:31.621Z,62.15
2018-08-07T02:44:31.555Z,62.06
2018-08-07T02:45:31.463Z,61.87
2018-08-07T02:46:31.357Z,62.06
2018-08-07T02:47:31.271Z,62.41
2018-08-07T02:48:31.181Z,62.60
2018-08-07T02:49:31.096Z,62.51
2018-08-07T02:50:31.021Z,62.70
2018-08-07T02:51:30.920Z,62.51
2018-08-07T02:52:30.832Z,62.32
2018-08-07T02:53:30.744Z,62.41
2018-08-07T02:54:30.659Z,62.70
2018-08-07T02:55:30.582Z,62.70
2018-08-07T02:56:30.478Z,62.51
2018-08-07T02:57:30.392Z,62.51
2018-08-07T02:58:30.303Z,62.80
2018-08-07T02:59:30.214Z,62.99
2018-08-07T03:00:30.142Z,62.41
2018-08-07T03:01:30.039Z,62.80
2018-08-07T03:02:29.954Z,62.22
2018-08-07T03:03:29.864Z,62.41
2018-08-07T03:04:29.775Z,61.93
2018-08-07T03:05:29.702Z,62.70
2018-08-07T03:06:29.600Z,62.99
2018-08-07T03:07:29.510Z,62.70
2018-08-07T03:08:29.424Z,62.80
2018-08-07T03:09:29.336Z,62.80
2018-08-07T03:10:29.263Z,62.80
2018-08-07T03:11:29.158Z,63.18
2018-08-07T03:12:29.072Z,63.28
2018-08-07T03:13:28.983Z,62.90
2018-08-07T03:14:28.896Z,63.28
2018-08-07T03:15:28.831Z,63.09
2018-08-07T03:16:28.721Z,63.82
2018-08-07T03:17:28.630Z,62.99
2018-08-07T03:18:28.543Z,63.76
2018-08-07T03:19:28.457Z,62.99
2018-08-07T03:20:28.369Z,63.09
2018-08-07T03:21:28.296Z,63.09
2018-08-07T03:22:28.192Z,63.47
2018-08-07T03:23:28.105Z,63.28
2018-08-07T03:24:28.016Z,63.76
2018-08-07T03:25:27.957Z,62.90
2018-08-07T03:26:27.840Z,63.28
2018-08-07T03:27:27.750Z,62.99
2018-08-07T03:28:27.662Z,63.57
2018-08-07T03:29:27.578Z,63.47
2018-08-07T03:30:27.487Z,63.38
2018-08-07T03:31:27.416Z,62.99
2018-08-07T03:32:27.313Z,63.28
2018-08-07T03:33:27.223Z,63.76
2018-08-07T03:34:27.134Z,63.67
2018-08-07T03:35:27.046Z,63.15
2018-08-07T03:36:26.977Z,63.28
2018-08-07T03:37:26.870Z,63.67
2018-08-07T03:38:26.781Z,64.34
2018-08-07T03:39:26.693Z,63.54
2018-08-07T03:40:26.710Z,63.67
2018-08-07T03:41:26.536Z,63.76
2018-08-07T03:42:26.429Z,63.95
2018-08-07T03:43:26.340Z,64.31
2018-08-07T03:44:26.254Z,63.67
2018-08-07T03:45:26.167Z,63.64
2018-08-07T03:46:26.093Z,63.57
2018-08-07T03:47:26.094Z,63.76
2018-08-07T03:48:25.902Z,63.76
2018-08-07T03:49:25.813Z,63.67
2018-08-07T03:50:25.726Z,63.57
2018-08-07T03:51:25.638Z,64.02
2018-08-07T03:52:25.564Z,63.18
2018-08-07T03:53:25.463Z,63.25
2018-08-07T03:54:25.483Z,64.21
2018-08-07T03:55:25.283Z,63.54
2018-08-07T03:56:25.197Z,63.92
2018-08-07T03:57:25.122Z,63.73
2018-08-07T03:58:25.910Z,64.12
2018-08-07T03:59:24.931Z,64.50
2018-08-07T04:00:24.844Z,64.02
2018-08-07T04:01:24.866Z,63.92
2018-08-07T04:02:24.683Z,64.31
2018-08-07T04:03:24.578Z,64.02
2018-08-07T04:04:24.491Z,64.02
2018-08-07T04:05:24.403Z,64.02
2018-08-07T04:06:24.317Z,64.21
2018-08-07T04:07:24.244Z,64.12
2018-08-07T04:08:24.244Z,64.31
2018-08-07T04:09:24.052Z,64.12
2018-08-07T04:10:23.959Z,64.02
2018-08-07T04:11:23.875Z,64.40
2018-08-07T04:12:23.802Z,64.50
2018-08-07T04:13:23.697Z,64.31
2018-08-07T04:14:23.609Z,64.31
2018-08-07T04:15:23.627Z,64.12
2018-08-07T04:16:23.436Z,64.89
2018-08-07T04:17:23.362Z,64.69
2018-08-07T04:18:23.257Z,64.50
2018-08-07T04:19:23.176Z,64.98
2018-08-07T04:20:23.080Z,65.08
2018-08-07T04:21:22.992Z,64.59
2018-08-07T04:22:23.024Z,64.40
2018-08-07T04:23:22.817Z,64.50
2018-08-07T04:24:22.726Z,64.50
2018-08-07T04:25:22.641Z,64.79
2018-08-07T04:26:22.552Z,64.89
2018-08-07T04:27:22.478Z,64.50
2018-08-07T04:28:22.374Z,64.25
2018-08-07T04:29:22.393Z,63.76
2018-08-07T04:30:22.198Z,64.05
2018-08-07T04:31:22.112Z,64.25
2018-08-07T04:32:22.041Z,63.57
2018-08-07T04:33:21.935Z,63.95
2018-08-07T04:34:21.896Z,64.43
2018-08-07T04:35:21.761Z,64.15
2018-08-07T04:36:21.773Z,64.53
2018-08-07T04:37:21.589Z,65.11
2018-08-07T04:38:21.509Z,64.25
2018-08-07T04:39:21.404Z,64.47
2018-08-07T04:40:21.317Z,64.43
2018-08-07T04:41:21.231Z,64.25
2018-08-07T04:42:21.143Z,64.63
2018-08-07T04:43:21.071Z,64.15
2018-08-07T04:44:20.965Z,64.05
2018-08-07T04:45:20.878Z,64.37
2018-08-07T04:46:20.789Z,63.89
2018-08-07T04:47:20.700Z,64.18
2018-08-07T04:48:20.630Z,64.95
2018-08-07T04:49:20.527Z,63.98
2018-08-07T04:50:20.440Z,63.12
2018-08-07T04:51:20.348Z,63.15
2018-08-07T04:52:20.262Z,62.66
2018-08-07T04:53:20.194Z,62.66
2018-08-07T04:54:20.091Z,62.96
2018-08-07T04:55:20.063Z,62.57
2018-08-07T04:56:19.911Z,62.18
2018-08-07T04:57:19.823Z,62.76
2018-08-07T04:58:19.860Z,62.86
2018-08-07T04:59:19.650Z,63.06
2018-08-07T05:00:19.562Z,62.86
2018-08-07T05:01:19.476Z,62.60
2018-08-07T05:02:19.386Z,62.31
2018-08-07T05:03:19.314Z,62.12
2018-08-07T05:04:19.341Z,62.02
2018-08-07T05:05:19.125Z,61.54
2018-08-07T05:06:19.038Z,62.22
2018-08-07T05:07:18.952Z,62.31
2018-08-07T05:08:18.882Z,62.02
2018-08-07T05:09:18.778Z,62.02
2018-08-07T05:10:18.713Z,62.70
2018-08-07T05:11:18.606Z,62.02
2018-08-07T05:12:18.518Z,62.89
2018-08-07T05:13:18.447Z,62.66
2018-08-07T05:14:18.403Z,63.09
2018-08-07T05:15:18.254Z,62.89
2018-08-07T05:16:18.169Z,62.79
2018-08-07T05:17:18.081Z,63.92
2018-08-07T05:18:18.010Z,63.15
2018-08-07T05:19:17.911Z,63.24
2018-08-07T05:20:17.821Z,63.34
2018-08-07T05:21:17.734Z,62.60
2018-08-07T05:22:17.648Z,62.79
2018-08-07T05:23:17.579Z,62.70
2018-08-07T05:24:17.488Z,62.05
2018-08-07T05:25:17.386Z,62.12
2018-08-07T05:26:17.300Z,62.92
2018-08-07T05:27:17.213Z,62.12
2018-08-07T05:28:17.129Z,62.34
2018-08-07T05:29:17.054Z,62.51
2018-08-07T05:30:16.952Z,62.73
2018-08-07T05:31:16.864Z,61.96
2018-08-07T05:32:16.777Z,62.25
2018-08-07T05:33:16.691Z,61.67
2018-08-07T05:34:16.620Z,61.38
2018-08-07T05:35:16.517Z,61.19
2018-08-07T05:36:16.433Z,61.09
2018-08-07T05:37:16.345Z,61.19
2018-08-07T05:38:16.259Z,61.02
2018-08-07T05:39:16.185Z,61.31
2018-08-07T05:40:16.083Z,61.31
2018-08-07T05:41:15.996Z,61.41
2018-08-07T05:42:15.934Z,61.31
2018-08-07T05:43:15.823Z,62.47
2018-08-07T05:44:15.751Z,62.28
2018-08-07T05:45:15.651Z,61.12
2018-08-07T05:46:15.582Z,61.41
2018-08-07T05:47:15.476Z,61.60
2018-08-07T05:48:15.390Z,61.51
2018-08-07T05:49:15.318Z,62.86
2018-08-07T05:50:15.365Z,62.95
2018-08-07T05:51:15.422Z,61.51
2018-08-07T05:52:15.046Z,61.51
2018-08-07T05:53:14.957Z,61.89
2018-08-07T05:54:14.890Z,61.70
2018-08-07T05:55:14.834Z,61.05
2018-08-07T05:56:14.698Z,61.34
2018-08-07T05:57:14.612Z,60.86
2018-08-07T05:58:14.528Z,59.92
2018-08-07T05:59:14.501Z,60.99
2018-08-07T06:00:14.353Z,62.70
2018-08-07T06:01:14.265Z,63.08
2018-08-07T06:02:14.180Z,61.57
2018-08-07T06:03:14.095Z,61.54
2018-08-07T06:04:14.022Z,61.37
2018-08-07T06:05:13.919Z,60.50
2018-08-07T06:06:13.833Z,60.14
2018-08-07T06:07:13.745Z,60.05
2018-08-07T06:08:13.660Z,60.53
2018-08-07T06:09:13.577Z,60.34
2018-08-07T06:10:13.506Z,59.69
2018-08-07T06:11:13.402Z,59.21
2018-08-07T06:12:13.321Z,59.69
2018-08-07T06:13:13.231Z,59.11
2018-08-07T06:14:13.146Z,59.21
2018-08-07T06:15:13.073Z,59.21
2018-08-07T06:16:12.972Z,59.31
2018-08-07T06:17:12.887Z,59.59
2018-08-07T06:18:12.818Z,59.53
2018-08-07T06:19:12.782Z,60.08
2018-08-07T06:20:12.646Z,59.79
2018-08-07T06:21:12.644Z,59.59
2018-08-07T06:22:12.459Z,60.57
2018-08-07T06:23:12.372Z,60.47
2018-08-07T06:24:12.290Z,60.69
2018-08-07T06:25:12.217Z,60.21
2018-08-07T06:26:12.117Z,59.69
2018-08-07T06:27:12.036Z,59.98
2018-08-07T06:28:11.947Z,60.57
2018-08-07T06:29:11.861Z,60.27
2018-08-07T06:30:11.792Z,60.08
2018-08-07T06:31:11.690Z,60.11
2018-08-07T06:32:11.603Z,60.17
2018-08-07T06:33:11.519Z,60.17
2018-08-07T06:34:11.434Z,60.30
2018-08-07T06:35:11.472Z,61.66
2018-08-07T06:36:11.264Z,62.69
2018-08-07T06:37:11.180Z,61.27
2018-08-07T06:38:11.093Z,61.24
2018-08-07T06:39:11.009Z,61.27
2018-08-07T06:40:10.948Z,61.56
2018-08-07T06:41:10.837Z,60.98
2018-08-07T06:42:10.866Z,59.53
2018-08-07T06:43:10.665Z,59.72
2018-08-07T06:44:10.581Z,59.53
2018-08-07T06:45:10.511Z,60.01
2018-08-07T06:46:10.411Z,60.04
2018-08-07T06:47:10.324Z,60.24
2018-08-07T06:48:10.318Z,59.94
2018-08-07T06:49:10.261Z,59.39
2018-08-07T06:50:10.120Z,58.55
2018-08-07T06:51:09.985Z,59.13
2018-08-07T06:52:09.899Z,59.45
2018-08-07T06:53:09.815Z,58.77
2018-08-07T06:54:09.732Z,59.26
2018-08-07T06:55:09.646Z,58.80
2018-08-07T06:56:09.685Z,57.67
2018-08-07T06:57:09.513Z,56.89
2018-08-07T06:58:09.399Z,57.86
2018-08-07T06:59:09.305Z,56.52
2018-08-07T07:00:09.229Z,56.24
2018-08-07T07:01:09.159Z,57.60
2018-08-07T07:02:09.057Z,56.92
2018-08-07T07:03:09.072Z,56.62
2018-08-07T07:04:08.891Z,55.75
2018-08-07T07:05:08.807Z,55.85
2018-08-07T07:06:08.743Z,57.11
2018-08-07T07:07:08.645Z,57.18
2018-08-07T07:08:08.561Z,57.57
2018-08-07T07:09:08.478Z,57.11
2018-08-07T07:10:08.501Z,56.62
2018-08-07T07:11:08.329Z,56.95
2018-08-07T07:12:08.234Z,58.98
2018-08-07T07:13:08.150Z,57.65
2018-08-07T07:14:08.068Z,56.87
2018-08-07T07:15:08.004Z,55.90
2018-08-07T07:16:07.922Z,55.80
2018-08-07T07:17:07.928Z,56.87
2018-08-07T07:18:07.744Z,56.59
2018-08-07T07:19:07.662Z,57.04
2018-08-07T07:20:07.580Z,57.62
2018-08-07T07:21:07.515Z,56.85
2018-08-07T07:22:07.419Z,58.21
2018-08-07T07:23:07.338Z,57.72
2018-08-07T07:24:07.360Z,58.31
2018-08-07T07:25:07.179Z,58.40
2018-08-07T07:26:07.112Z,58.53
2018-08-07T07:27:07.015Z,58.89
2018-08-07T07:28:06.935Z,58.79
2018-08-07T07:29:06.858Z,58.89
2018-08-07T07:30:06.775Z,58.82
2018-08-07T07:31:06.802Z,59.38
2018-08-07T07:32:06.631Z,60.93
2018-08-07T07:33:06.535Z,58.43
2018-08-07T07:34:06.499Z,58.23
2018-08-07T07:35:06.377Z,58.43
2018-08-07T07:36:06.294Z,57.78
2018-08-07T07:37:06.227Z,57.49
2018-08-07T07:38:06.247Z,57.20
2018-08-07T07:39:06.052Z,58.04
2018-08-07T07:40:05.972Z,57.39
2018-08-07T07:41:05.893Z,57.10
2018-08-07T07:42:05.828Z,58.20
2018-08-07T07:43:05.735Z,57.78
2018-08-07T07:44:05.653Z,58.46
2018-08-07T07:45:05.679Z,58.49
2018-08-07T07:46:05.507Z,57.78
2018-08-07T07:47:05.451Z,56.84
2018-08-07T07:48:05.333Z,56.71
2018-08-07T07:49:05.254Z,57.29
2018-08-07T07:50:05.174Z,56.54
2018-08-07T07:51:05.094Z,56.25
2018-08-07T07:52:05.034Z,55.96
2018-08-07T07:53:04.935Z,55.86
2018-08-07T07:54:04.877Z,56.84
2018-08-07T07:55:04.776Z,56.15
2018-08-07T07:56:04.700Z,56.45
2018-08-07T07:57:04.632Z,56.54
2018-08-07T07:58:04.537Z,56.74
2018-08-07T07:59:04.457Z,55.96
2018-08-07T08:00:04.382Z,56.18
2018-08-07T08:01:04.301Z,55.69
2018-08-07T08:02:04.245Z,55.62
2018-08-07T08:03:04.138Z,55.40
2018-08-07T08:04:04.059Z,55.96
2018-08-07T08:05:03.988Z,54.99
2018-08-07T08:06:03.935Z,54.69
2018-08-07T08:07:03.851Z,55.01
2018-08-07T08:08:03.742Z,54.72
2018-08-07T08:09:03.663Z,54.33
2018-08-07T08:10:03.584Z,54.33
2018-08-07T08:11:03.554Z,53.94
2018-08-07T08:12:03.438Z,55.11
2018-08-07T08:13:03.344Z,54.33
2018-08-07T08:14:03.265Z,54.82
2018-08-07T08:15:03.194Z,54.79
2018-08-07T08:16:03.106Z,55.30
2018-08-07T08:17:03.033Z,54.23
2018-08-07T08:18:02.963Z,53.45
2018-08-07T08:19:02.870Z,53.06
2018-08-07T08:20:02.790Z,53.16
2018-08-07T08:21:02.712Z,54.82
2018-08-07T08:22:02.635Z,54.33
2018-08-07T08:23:02.567Z,55.21
2018-08-07T08:24:02.472Z,54.36
2018-08-07T08:25:02.392Z,55.04
2018-08-07T08:26:02.315Z,55.11
2018-08-07T08:27:02.233Z,55.79
2018-08-07T08:28:02.170Z,55.04
2018-08-07T08:29:02.145Z,54.36
2018-08-07T08:30:02.125Z,53.11
2018-08-07T08:31:01.917Z,53.21
2018-08-07T08:32:01.840Z,52.99
2018-08-07T08:33:01.773Z,53.38
2018-08-07T08:34:01.680Z,53.19
2018-08-07T08:35:01.664Z,52.73
2018-08-07T08:36:01.525Z,53.21
2018-08-07T08:37:01.442Z,53.41
2018-08-07T08:38:01.379Z,54.09
2018-08-07T08:39:01.298Z,53.44
2018-08-07T08:40:01.207Z,53.94
2018-08-07T08:41:01.223Z,55.07
2018-08-07T08:42:01.050Z,54.02
2018-08-07T08:43:00.990Z,52.73
2018-08-07T08:44:00.889Z,52.75
2018-08-07T08:45:00.810Z,53.95
2018-08-07T08:46:00.734Z,51.70
2018-08-07T08:47:00.652Z,51.90
2018-08-07T08:48:00.647Z,53.44
2018-08-07T08:49:00.496Z,54.19
2018-08-07T08:50:00.416Z,54.58
2018-08-07T08:51:00.336Z,52.75
2018-08-07T08:52:00.261Z,51.90
2018-08-07T08:53:00.195Z,51.80
2018-08-07T08:54:00.139Z,51.02
2018-08-07T08:55:00.024Z,51.87
2018-08-07T08:55:59.944Z,53.34
2018-08-07T08:56:59.865Z,52.85
2018-08-07T08:57:59.803Z,52.09
2018-08-07T08:58:59.708Z,52.19
2018-08-07T08:59:59.630Z,51.53
2018-08-07T09:00:59.551Z,51.24
2018-08-07T09:01:59.473Z,50.65
2018-08-07T09:02:59.396Z,51.43
2018-08-07T09:03:59.332Z,52.34
2018-08-07T09:04:59.280Z,51.98
2018-08-07T09:05:59.160Z,51.20
2018-08-07T09:06:59.081Z,51.42
2018-08-07T09:07:59.116Z,49.55
2018-08-07T09:08:58.940Z,50.37
2018-08-07T09:09:58.849Z,49.19
2018-08-07T09:10:58.771Z,48.68
2018-08-07T09:11:58.704Z,48.77
2018-08-07T09:12:58.666Z,49.33
2018-08-07T09:13:58.552Z,49.98
2018-08-07T09:14:58.569Z,50.02
2018-08-07T09:15:58.380Z,49.26
2018-08-07T09:16:58.303Z,49.43
2018-08-07T09:17:58.225Z,49.43
2018-08-07T09:18:58.162Z,49.55
2018-08-07T09:19:58.067Z,49.85
2018-08-07T09:20:57.996Z,49.68
2018-08-07T09:21:58.013Z,49.41
2018-08-07T09:22:57.843Z,48.14
2018-08-07T09:23:57.774Z,49.77
2018-08-07T09:24:57.682Z,49.99
2018-08-07T09:25:57.812Z,49.80
2018-08-07T09:26:57.527Z,50.61
2018-08-07T09:27:57.449Z,48.58
2018-08-07T09:28:57.487Z,46.52
2018-08-07T09:29:57.295Z,48.48
2018-08-07T09:30:57.216Z,48.90
2018-08-07T09:31:57.201Z,49.09
2018-08-07T09:32:57.127Z,50.59
2018-08-07T09:33:57.002Z,50.07
2018-08-07T09:34:56.912Z,50.15
2018-08-07T09:35:56.946Z,49.02
2018-08-07T09:36:56.757Z,48.24
2018-08-07T09:37:56.679Z,49.58
2018-08-07T09:38:56.617Z,49.97
2018-08-07T09:39:56.528Z,50.24
2018-08-07T09:40:56.449Z,49.58
2018-08-07T09:41:56.371Z,50.56
2018-08-07T09:42:56.400Z,48.82
2018-08-07T09:43:56.233Z,48.14
2018-08-07T09:44:56.146Z,48.26
2018-08-07T09:45:56.064Z,49.31
2018-08-07T09:46:55.991Z,48.90
2018-08-07T09:47:55.912Z,49.48
2018-08-07T09:48:55.864Z,48.04
2018-08-07T09:49:55.868Z,48.33
2018-08-07T09:50:55.679Z,47.28
2018-08-07T09:51:55.602Z,48.28
2018-08-07T09:52:55.526Z,48.23
2018-08-07T09:53:55.449Z,48.50
2018-08-07T09:54:55.386Z,46.95
2018-08-07T09:55:55.295Z,46.25
2018-08-07T09:56:55.323Z,45.59
2018-08-07T09:57:55.142Z,44.90
2018-08-07T09:58:55.070Z,47.16
2018-08-07T09:59:55.545Z,44.90
2018-08-07T10:00:54.912Z,47.06
2018-08-07T10:01:54.837Z,46.10
2018-08-07T10:02:54.762Z,45.83
2018-08-07T10:03:54.684Z,44.26
2018-08-07T10:04:54.622Z,43.96
2018-08-07T10:05:54.531Z,44.26
2018-08-07T10:06:54.456Z,44.73
2018-08-07T10:07:54.379Z,44.62
2018-08-07T10:08:54.305Z,42.62
2018-08-07T10:09:54.244Z,42.57
2018-08-07T10:10:54.254Z,43.72
2018-08-07T10:11:54.076Z,43.90
2018-08-07T10:12:53.998Z,44.76
2018-08-07T10:13:53.927Z,44.66
2018-08-07T10:14:53.861Z,43.68
2018-08-07T10:15:53.772Z,42.80
2018-08-07T10:16:53.698Z,43.68
2018-08-07T10:17:53.627Z,42.23
2018-08-07T10:18:53.544Z,42.60
2018-08-07T10:19:53.495Z,42.43
2018-08-07T10:20:53.392Z,42.13
2018-08-07T10:21:53.315Z,43.09
2018-08-07T10:22:53.238Z,42.15
2018-08-07T10:23:53.163Z,41.27
2018-08-07T10:24:53.089Z,41.88
2018-08-07T10:25:53.031Z,42.65
2018-08-07T10:26:52.935Z,42.35
2018-08-07T10:27:52.859Z,41.94
2018-08-07T10:28:52.785Z,43.02
2018-08-07T10:29:52.707Z,42.82
2018-08-07T10:30:52.667Z,44.38
2018-08-07T10:31:52.557Z,42.55
2018-08-07T10:32:52.480Z,41.94
2018-08-07T10:33:52.409Z,41.89
2018-08-07T10:34:52.343Z,42.56
2018-08-07T10:35:52.267Z,42.76
2018-08-07T10:36:52.175Z,44.07
2018-08-07T10:37:52.098Z,43.52
2018-08-07T10:38:52.023Z,42.18
2018-08-07T10:39:51.946Z,39.92
2018-08-07T10:40:52.013Z,41.31
2018-08-07T10:41:51.794Z,41.63
2018-08-07T10:42:51.717Z,40.56
2018-08-07T10:43:51.747Z,39.37
2018-08-07T10:44:51.567Z,40.06
2018-08-07T10:45:51.494Z,40.03
2018-08-07T10:46:51.430Z,40.86
2018-08-07T10:47:51.401Z,42.18
2018-08-07T10:48:51.263Z,40.80
2018-08-07T10:49:51.189Z,39.51
2018-08-07T10:50:51.169Z,39.15
2018-08-07T10:51:51.049Z,40.21
2018-08-07T10:52:50.959Z,39.94
2018-08-07T10:53:50.881Z,39.43
2018-08-07T10:54:50.806Z,40.01
2018-08-07T10:55:50.732Z,39.82
2018-08-07T10:56:50.671Z,40.80
2018-08-07T10:57:50.582Z,40.11
2018-08-07T10:58:50.504Z,41.19
2018-08-07T10:59:50.429Z,40.63
2018-08-07T11:00:50.357Z,40.98
2018-08-07T11:01:50.295Z,40.21
2018-08-07T11:02:50.202Z,40.45
2018-08-07T11:03:50.127Z,40.96
2018-08-07T11:04:50.052Z,40.98
2018-08-07T11:05:50.019Z,39.70
2018-08-07T11:06:49.901Z,38.21
2018-08-07T11:07:49.842Z,38.13
2018-08-07T11:08:49.749Z,37.82
2018-08-07T11:09:49.676Z,37.92
2018-08-07T11:10:49.601Z,38.46
2018-08-07T11:11:49.522Z,39.72
2018-08-07T11:12:49.463Z,39.82
2018-08-07T11:13:49.376Z,38.78
2018-08-07T11:14:49.301Z,37.98
2018-08-07T11:15:49.223Z,38.56
2018-08-07T11:16:49.147Z,39.82
2018-08-07T11:17:49.087Z,39.23
2018-08-07T11:18:49.000Z,38.93
2018-08-07T11:19:48.922Z,40.23
2018-08-07T11:20:48.846Z,38.27
2018-08-07T11:21:48.772Z,39.47
2018-08-07T11:22:48.709Z,38.90
2018-08-07T11:23:48.618Z,37.34
2018-08-07T11:24:48.587Z,35.69
2018-08-07T11:25:48.470Z,34.51
2018-08-07T11:26:48.392Z,35.10
2018-08-07T11:27:48.331Z,36.07
2018-08-07T11:28:48.242Z,36.24
2018-08-07T11:29:48.186Z,37.23
2018-08-07T11:30:48.090Z,37.03
2018-08-07T11:31:48.016Z,35.85
2018-08-07T11:32:47.956Z,36.65
2018-08-07T11:33:47.865Z,35.77
2018-08-07T11:34:47.794Z,36.44
2018-08-07T11:35:47.716Z,37.13
2018-08-07T11:36:47.641Z,36.74
2018-08-07T11:37:47.584Z,36.42
2018-08-07T11:38:47.488Z,36.21
2018-08-07T11:39:47.416Z,37.43
2018-08-07T11:40:47.346Z,37.74
2018-08-07T11:41:47.265Z,38.72
2018-08-07T11:42:47.204Z,40.09
2018-08-07T11:43:47.116Z,40.74
2018-08-07T11:44:47.039Z,38.60
2018-08-07T11:45:46.982Z,39.01
2018-08-07T11:46:46.890Z,39.70
2018-08-07T11:47:46.817Z,38.74
2018-08-07T11:48:46.756Z,38.54
2018-08-07T11:49:46.662Z,38.54
2018-08-07T11:50:46.592Z,39.80
2018-08-07T11:51:46.515Z,40.31
2018-08-07T11:52:46.437Z,39.74
2018-08-07T11:53:46.375Z,38.60
2018-08-07T11:54:46.588Z,39.11
2018-08-07T11:55:46.211Z,38.72
2018-08-07T11:56:46.133Z,36.24
2018-08-07T11:57:46.058Z,36.74
2018-08-07T11:58:45.996Z,36.26
2018-08-07T11:59:45.908Z,36.44
2018-08-07T12:00:45.830Z,35.85
2018-08-07T12:01:45.875Z,36.24
2018-08-07T12:02:45.682Z,37.34
2018-08-07T12:03:45.619Z,38.05
2018-08-07T12:04:45.532Z,37.08
2018-08-07T12:05:45.453Z,34.51
2018-08-07T12:06:45.377Z,35.30
2018-08-07T12:07:45.303Z,35.39
2018-08-07T12:08:45.360Z,35.08
2018-08-07T12:09:45.153Z,35.36
2018-08-07T12:10:45.083Z,35.85
2018-08-07T12:11:45.002Z,36.75
2018-08-07T12:12:44.939Z,37.19
2018-08-07T12:13:44.869Z,39.90
2018-08-07T12:14:44.778Z,39.72
2018-08-07T12:15:44.807Z,39.76
2018-08-07T12:16:44.627Z,39.98
2018-08-07T12:17:44.552Z,39.50
2018-08-07T12:18:44.491Z,40.78
2018-08-07T12:19:44.402Z,37.34
2018-08-07T12:20:44.330Z,37.16
2018-08-07T12:21:44.282Z,37.24
2018-08-07T12:22:44.183Z,37.76
2018-08-07T12:23:44.119Z,37.65
2018-08-07T12:24:44.027Z,37.36
2018-08-07T12:25:43.952Z,36.28
2018-08-07T12:26:43.880Z,36.74
2018-08-07T12:27:43.825Z,38.74
2018-08-07T12:28:43.744Z,39.61
2018-08-07T12:29:43.652Z,40.51
2018-08-07T12:30:43.578Z,38.58
2018-08-07T12:31:43.505Z,38.37
2018-08-07T12:32:43.427Z,38.48
2018-08-07T12:33:43.353Z,37.32
2018-08-07T12:34:43.292Z,37.32
2018-08-07T12:35:43.307Z,38.01
2018-08-07T12:36:43.127Z,37.44
2018-08-07T12:37:43.052Z,36.47
2018-08-07T12:38:42.977Z,35.80
2018-08-07T12:39:42.918Z,35.71
2018-08-07T12:40:42.827Z,35.43
2018-08-07T12:41:42.752Z,36.85
2018-08-07T12:42:42.781Z,36.54
2018-08-07T12:43:42.602Z,36.65
2018-08-07T12:44:42.543Z,36.26
2018-08-07T12:45:42.456Z,36.95
2018-08-07T12:46:42.414Z,36.36
2018-08-07T12:47:42.307Z,37.54
2018-08-07T12:48:42.229Z,37.13
2018-08-07T12:49:42.263Z,38.74
2018-08-07T12:50:42.099Z,39.69
2018-08-07T12:51:42.005Z,40.76